Time;durP1;ratioP1;P1;durP2;ratioP2;P2;SDS_P1;SDS_P2;PMS_P1;PMS_P2;Temp;Humidity;BMP_temperature;BMP_pressure;BME280_temperature;BME280_humidity;BME280_pressure;Samples;Min_cycle;Max_cycle;Signal;HPM_P1;HPM_P2
2022/08/22 00:01:45;;;;;;;;;;;;;;;;;;21082272;28;20441;-56
2022/08/22 00:11:47;;;;;;;;;;;;;;;;;;21081308;28;20018;-54
2022/08/22 00:21:49;;;;;;;;;;;;;;;;;;21082480;28;19924;-55
2022/08/22 00:31:51;;;;;;;;;;;;;;;;;;21080260;28;19931;-55
2022/08/22 00:41:53;;;;;;;;;;;;;;;;;;21079643;28;19928;-54
2022/08/22 00:51:55;;;;;;;;;;;;;;;;;;21079265;28;20371;-60
2022/08/22 01:01:57;;;;;;;;;;;;;;;;;;21078882;28;20394;-56
2022/08/22 01:11:59;;;;;;;;;;;;;;;;;;21088448;28;19931;-58
2022/08/22 01:22:01;;;;;;;;;;;;;;;;;;21095027;28;20015;-54
2022/08/22 01:32:03;;;;;;;;;;;;;;;;;;21095155;28;19931;-55
2022/08/22 01:42:06;;;;;;;;;;;;;;;;;;21093281;28;20014;-54
2022/08/22 01:52:09;;;;;;;;;;;;;;;;;;21092467;28;20015;-54
2022/08/22 02:02:16;;;;;;;;;;;;;;;;;;21090568;28;19924;-54
2022/08/22 02:12:17;;;;;;;;;;;;;;;;;;21086287;28;20069;-55
2022/08/22 02:22:22;;;;;;;;;;;;;;;;;;21085162;28;19989;-55
2022/08/22 02:32:26;;;;;;;;;;;;;;;;;;21084980;28;19969;-55
2022/08/22 02:42:27;;;;;;;;;;;;;;;;;;21085179;28;19931;-55
2022/08/22 02:52:31;;;;;;;;;;;;;;;;;;21084412;28;19950;-53
2022/08/22 03:02:33;;;;;;;;;;;;;;;;;;21016591;28;1894497;-55
2022/08/22 03:12:35;;;;;;;;;;;;;;;;;;21086311;28;19924;-57
2022/08/22 03:22:40;;;;;;;;;;;;;;;;;;21087110;28;19970;-54
2022/08/22 03:32:42;;;;;;;;;;;;;;;;;;21085273;28;20315;-55
2022/08/22 03:42:44;;;;;;;;;;;;;;;;;;21090284;28;20346;-55
2022/08/22 04:03:08;;;;;;;;;;;;;;;;;;21083995;28;19950;-59
2022/08/22 04:13:11;;;;;;;;;;;;;;;;;;21083258;28;20284;-62
2022/08/22 04:23:13;;;;;;;;;;;;;;;;;;21081828;28;19967;-64
2022/08/22 04:33:15;;;;;;;;;;;;;;;;;;21081406;28;19970;-55
2022/08/22 04:43:18;;;;;;;;;;;;;;;;;;21081834;28;19955;-61
2022/08/22 04:53:22;;;;;;;;;;;;;;;;;;21080450;28;19969;-54
2022/08/22 05:03:23;;;;;;;;;;;;;;;;;;21081474;28;19924;-55
2022/08/22 05:13:25;;;;;;;;;;;;;;;;;;21080616;28;19931;-59
2022/08/22 05:23:27;;;;;;;;;;;;;;;;;;21078876;28;19993;-53
2022/08/22 05:33:29;;;;;;;;;;;;;;;;;;21077461;28;19935;-56
2022/08/22 05:43:31;;;;;;;;;;;;;;;;;;21077366;28;20022;-58
2022/08/22 05:53:33;;;;;;;;;;;;;;;;;;21078731;28;20352;-54
2022/08/22 06:03:35;;;;;;;;;;;;;;;;;;21092293;28;19963;-55
2022/08/22 06:13:37;;;;;;;;;;;;;;;;;;21091358;28;20037;-54
2022/08/22 06:23:39;;;;;;;;;;;;;;;;;;21090755;28;19971;-57
2022/08/22 06:33:41;;;;;;;;;;;;;;;;;;21089753;28;19924;-53
2022/08/22 06:43:43;;;;;;;;;;;;;;;;;;21088642;28;20291;-55
2022/08/22 06:53:47;;;;;;;;;;;;;;;;;;21087269;28;19924;-55
2022/08/22 07:03:49;;;;;;;;;;;;;;;;;;21086045;28;19963;-55
2022/08/22 07:13:55;;;;;;;;;;;;;;;;;;21085338;28;19935;-54
2022/08/22 07:23:59;;;;;;;;;;;;;;;;;;21084063;28;19928;-54
2022/08/22 07:34:02;;;;;;;;;;;;;;;;;;21084927;28;19924;-56
2022/08/22 07:44:04;;;;;;;;;;;;;;;;;;21084268;28;19935;-56
2022/08/22 07:54:06;;;;;;;;;;;;;;;;;;21082977;28;20299;-55
2022/08/22 08:04:08;;;;;;;;;;;;;;;;;;21081523;28;19924;-55
2022/08/22 08:14:10;;;;;;;;;;;;;;;;;;21082183;28;19985;-56
2022/08/22 08:24:12;;;;;;;;;;;;;;;;;;21080425;28;20389;-54
2022/08/22 08:34:14;;;;;;;;;;;;;;;;;;21083198;28;19928;-53
2022/08/22 08:44:17;;;;;;;;;;;;;;;;;;21080121;28;19931;-57
2022/08/22 08:54:19;;;;;;;;;;;;;;;;;;21078929;28;20011;-56
2022/08/22 09:04:21;;;;;;;;;;;;;;;;;;21078767;28;20315;-55
2022/08/22 09:14:22;;;;;;;;;;;;;;;;;;21078202;28;19924;-54
2022/08/22 09:24:24;;;;;;;;;;;;;;;;;;21078535;28;19982;-57
2022/08/22 09:34:26;;;;;;;;;;;;;;;;;;21089197;28;19923;-55
2022/08/22 09:44:28;;;;;;;;;;;;;;;;;;21094431;28;19960;-54
2022/08/22 09:54:30;;;;;;;;;;;;;;;;;;21092708;28;19924;-56
2022/08/22 10:04:32;;;;;;;;;;;;;;;;;;21131587;28;19924;-55
2022/08/22 10:14:33;;;;;;;;;;;;;;;;;;21175223;28;19923;-54
2022/08/22 10:24:36;;;;;;;;;;;;;;;;;;21175501;28;20014;-56
2022/08/22 10:34:38;;;;;;;;;;;;;;;;;;21173710;28;19924;-55
2022/08/22 10:44:40;;;;;;;;;;;;;;;;;;21169828;28;19969;-54
2022/08/22 10:54:42;;;;;;;;;;;;;;;;;;21171056;28;19923;-54
2022/08/22 11:04:44;;;;;;;;;;;;;;;;;;21170423;28;20422;-55
2022/08/22 11:14:46;;;;;;;;;;;;;;;;;;21171353;28;19993;-58
2022/08/22 11:24:48;;;;;;;;;;;;;;;;;;21169040;28;19932;-54
2022/08/22 11:34:50;;;;;;;;;;;;;;;;;;21167935;28;20050;-56
2022/08/22 11:44:52;;;;;;;;;;;;;;;;;;21166973;28;19970;-56
2022/08/22 11:54:55;;;;;;;;;;;;;;;;;;21167197;28;19927;-53
2022/08/22 12:04:57;;;;;;;;;;;;;;;;;;21165397;28;19931;-57
2022/08/22 12:14:59;;;;;;;;;;;;;;;;;;21146803;28;19924;-55
2022/08/22 12:25:01;;;;;;;;;;;;;;;;;;21164353;28;19924;-55
2022/08/22 12:35:03;;;;;;;;;;;;;;;;;;21163400;28;20360;-56
2022/08/22 12:45:05;;;;;;;;;;;;;;;;;;21162691;28;19931;-57
2022/08/22 12:55:07;;;;;;;;;;;;;;;;;;21162358;28;19977;-55
2022/08/22 13:05:09;;;;;;;;;;;;;;;;;;21169422;28;19923;-55
2022/08/22 13:15:12;;;;;;;;;;;;;;;;;;21179831;28;19930;-55
2022/08/22 13:25:14;;;;;;;;;;;;;;;;;;21180891;28;20407;-56
2022/08/22 13:35:16;;;;;;;;;;;;;;;;;;21180050;28;20384;-56
2022/08/22 13:45:18;;;;;;;;;;;;;;;;;;21178563;28;19976;-56
2022/08/22 13:55:21;;;;;;;;;;;;;;;;;;21177715;28;19924;-53
2022/08/22 14:05:23;;;;;;;;;;;;;;;;;;21175808;28;19924;-55
2022/08/22 14:15:26;;;;;;;;;;;;;;;;;;21175248;28;20026;-56
2022/08/22 14:25:28;;;;;;;;;;;;;;;;;;21177970;28;20030;-56
2022/08/22 14:35:30;;;;;;;;;;;;;;;;;;21172992;28;19928;-55
2022/08/22 14:45:33;;;;;;;;;;;;;;;;;;21172659;28;19924;-55
2022/08/22 14:55:34;;;;;;;;;;;;;;;;;;21172527;28;19931;-57
2022/08/22 15:05:36;;;;;;;;;;;;;;;;;;21170957;28;19999;-56
2022/08/22 15:15:38;;;;;;;;;;;;;;;;;;21170589;28;20371;-55
2022/08/22 15:25:40;;;;;;;;;;;;;;;;;;21170239;28;19924;-56
2022/08/22 15:35:42;;;;;;;;;;;;;;;;;;21168998;28;20375;-54
2022/08/22 15:45:44;;;;;;;;;;;;;;;;;;21168037;28;19924;-54
2022/08/22 15:55:46;;;;;;;;;;;;;;;;;;21167218;28;19923;-54
2022/08/22 16:05:48;;;;;;;;;;;;;;;;;;21166525;28;20383;-56
2022/08/22 16:15:50;;;;;;;;;;;;;;;;;;21166601;28;19930;-54
2022/08/22 16:25:51;;;;;;;;;;;;;;;;;;21164818;28;20291;-54
2022/08/22 16:35:53;;;;;;;;;;;;;;;;;;21165851;28;20016;-56
2022/08/22 16:45:55;;;;;;;;;;;;;;;;;;21163340;28;19935;-57
2022/08/22 16:55:57;;;;;;;;;;;;;;;;;;21163124;28;19931;-55
2022/08/22 17:05:58;;;;;;;;;;;;;;;;;;21162699;28;19927;-56
2022/08/22 17:16:00;;;;;;;;;;;;;;;;;;21161973;28;20138;-54
2022/08/22 17:26:02;;;;;;;;;;;;;;;;;;21162444;28;19989;-54
2022/08/22 17:36:05;;;;;;;;;;;;;;;;;;21165186;28;19924;-54
2022/08/22 17:46:06;;;;;;;;;;;;;;;;;;21164213;28;19923;-59
2022/08/22 17:56:09;;;;;;;;;;;;;;;;;;21173090;28;20283;-56
2022/08/22 18:06:10;;;;;;;;;;;;;;;;;;21175138;28;19941;-55
2022/08/22 18:16:12;;;;;;;;;;;;;;;;;;21174975;28;19924;-56
2022/08/22 18:26:14;;;;;;;;;;;;;;;;;;21173839;28;19930;-55
2022/08/22 18:36:16;;;;;;;;;;;;;;;;;;21173899;28;19996;-56
2022/08/22 18:46:18;;;;;;;;;;;;;;;;;;21172843;28;19931;-57
2022/08/22 18:56:19;;;;;;;;;;;;;;;;;;21175429;28;20069;-56
2022/08/22 19:06:21;;;;;;;;;;;;;;;;;;21170603;28;20332;-55
2022/08/22 19:16:23;;;;;;;;;;;;;;;;;;21170489;28;20292;-54
2022/08/22 19:26:26;;;;;;;;;;;;;;;;;;21169411;28;19928;-56
2022/08/22 19:36:29;;;;;;;;;;;;;;;;;;21168304;28;19947;-56
2022/08/22 19:46:31;;;;;;;;;;;;;;;;;;21168854;28;19924;-56
2022/08/22 19:56:32;;;;;;;;;;;;;;;;;;21168235;28;19975;-56
2022/08/22 20:06:34;;;;;;;;;;;;;;;;;;21167626;28;19946;-57
2022/08/22 20:16:36;;;;;;;;;;;;;;;;;;21170095;28;19924;-59
2022/08/22 20:26:38;;;;;;;;;;;;;;;;;;21167061;28;19970;-62
2022/08/22 20:36:40;;;;;;;;;;;;;;;;;;21165482;28;19923;-55
2022/08/22 20:46:41;;;;;;;;;;;;;;;;;;21167337;28;20383;-55
2022/08/22 20:56:43;;;;;;;;;;;;;;;;;;21166616;28;19998;-57
2022/08/22 21:06:46;;;;;;;;;;;;;;;;;;21163540;28;19927;-55
2022/08/22 21:16:48;;;;;;;;;;;;;;;;;;21163043;28;19974;-56
2022/08/22 21:26:50;;;;;;;;;;;;;;;;;;21148652;28;19950;-56
2022/08/22 21:36:52;;;;;;;;;;;;;;;;;;21179150;28;20034;-55
2022/08/22 21:46:54;;;;;;;;;;;;;;;;;;21177904;28;19930;-57
2022/08/22 21:56:56;;;;;;;;;;;;;;;;;;21176842;28;19978;-57
2022/08/22 22:06:58;;;;;;;;;;;;;;;;;;21176625;28;19980;-56
2022/08/22 22:17:00;;;;;;;;;;;;;;;;;;21176414;28;19924;-55
2022/08/22 22:27:02;;;;;;;;;;;;;;;;;;21174146;28;19924;-57
2022/08/22 22:37:04;;;;;;;;;;;;;;;;;;21174138;28;19924;-57
2022/08/22 22:47:06;;;;;;;;;;;;;;;;;;21174184;28;19928;-63
2022/08/22 22:57:08;;;;;;;;;;;;;;;;;;21172230;28;19923;-60
2022/08/22 23:07:10;;;;;;;;;;;;;;;;;;21171778;28;19974;-56
2022/08/22 23:17:12;;;;;;;;;;;;;;;;;;21170697;28;19923;-55
2022/08/22 23:27:14;;;;;;;;;;;;;;;;;;21170134;28;19923;-55
2022/08/22 23:37:15;;;;;;;;;;;;;;;;;;21169298;28;19927;-55
2022/08/22 23:47:17;;;;;;;;;;;;;;;;;;21168588;28;19950;-57
2022/08/22 23:57:19;;;;;;;;;;;;;;;;;;21168143;28;19931;-54
